01:50
Airports
History
Links
Donate
Help keep this website running!
PayPal
Bitcoin
This page is community maintained. The information is intended for PC simulator navigation or reference.
Always use approved charts for navigation.
2Q6
Coaldale
Coaldale (2Q6)
Yonago-shi, Nevada, Japan (683)
4
Lat/Lng:38° 1' 34.75" N / 117° 53' 18.37" W
38.026319 / -117.888437
Elevation:4664'ft / 1422mMSL
ID / ICAO:2Q6
Runways:1
Longest:12-30
Dirt 933m / 3,062ft
Nearby Weather00:56 GMT 2017-11-23
Nearby weather at KTPH, Tonopah located 43.7 nautical miles from 2Q6
Altimeter: 30.35
Visibility: 10.0 statute miles
Wind: 4 knots (from 150°)
Temp: 18°c / 64°f
Humidity: 31.8%

METAR: KTPH 230056Z AUTO 15004KT 10SM CLR 18/01 A3035 RMK AO2 SLP250 T01780011

(Powered by phpweather)
Nearby VORs <50NM
Nearby NDBs
Runway 12 / 30
Dimensions:933.4 x 18.3m 3062' x 60'ft
Surface:Dirt
Runway 12 [A]Runway 30 [B]
Heading:134°TH 314°TH
Lat:
Lng:
38° 1' 45.4"N
117° 53' 31.89"W
38° 1' 24.1"N
117° 53' 4.86"W
User Notes and Comments
38° 1' 34.75" N / 117° 53' 18.37" W
Distance To
Airport ID:
Nearby Airports
(R) North Valley 15.6 NM
9CA6 SW 226°
(R) Circle L Ranch 23.9 NM
NV27 SSW 206°
4 Mina 26.9 NM
3Q0 NNW 335°
4 Dyer 29.5 NM
2Q9 SSW 192°
4 Goldfield 41.4 NM
0L5 ESE 121°
(U) Tonopah 43.7 NM
KTPH ( WX ) E 86°
(U) Eastern Sierra Rgnl 52.1 NM
KBIH ( WX ) SSW 209°
VFR Chart
Flight Planning at SkyVector.com